Time;durP1;ratioP1;P1;durP2;ratioP2;P2;SDS_P1;SDS_P2;PMS_P1;PMS_P2;Temp;Humidity;BMP_temperature;BMP_pressure;BME280_temperature;BME280_humidity;BME280_pressure;Samples;Min_cycle;Max_cycle;Signal;HPM_P1;HPM_P2
2022/06/21 00:00:40;;;;;;;;;11.00;11.00;;;;;-147.17;100.00;-15917.19;5014799;28;51010;-68
2022/06/21 00:03:10;;;;;;;;;13.33;13.33;;;;;-147.17;100.00;-15917.19;5009324;28;51165;-68
2022/06/21 00:05:39;;;;;;;;;12.67;12.67;;;;;-147.17;100.00;-15917.19;4999726;28;51021;-68
2022/06/21 00:08:11;;;;;;;;;11.67;11.67;;;;;-147.17;100.00;-15917.19;5004913;28;51118;-69
2022/06/21 00:10:37;;;;;;;;;14.50;13.50;;;;;-147.17;100.00;-15917.19;5005632;28;51882;-69
2022/06/21 00:13:08;;;;;;;;;13.33;13.33;;;;;-147.17;100.00;-15917.19;5009492;28;51718;-69
2022/06/21 00:15:33;;;;;;;;;13.00;13.00;;;;;-147.17;100.00;-15917.19;5010538;28;51112;-70
2022/06/21 00:17:59;;;;;;;;;13.67;13.00;;;;;-147.17;100.00;-15917.19;5012014;28;50977;-69
2022/06/21 00:20:25;;;;;;;;;14.00;13.33;;;;;-147.17;100.00;-15917.19;5008111;28;53901;-69
2022/06/21 00:22:51;;;;;;;;;17.00;16.00;;;;;-147.17;100.00;-15917.19;5006457;28;51011;-69
2022/06/21 00:25:23;;;;;;;;;15.50;15.50;;;;;-147.17;100.00;-15917.19;4997697;28;50954;-69
2022/06/21 00:27:48;;;;;;;;;17.00;15.25;;;;;-147.17;100.00;-15917.19;5021538;28;51033;-69
2022/06/21 00:30:15;;;;;;;;;14.75;14.25;;;;;-147.17;100.00;-15917.19;5011928;28;51598;-68
2022/06/21 00:32:41;;;;;;;;;16.75;16.50;;;;;-147.17;100.00;-15917.19;4999831;28;51133;-69
2022/06/21 00:35:15;;;;;;;;;16.75;16.25;;;;;-147.17;100.00;-15917.19;5011272;28;51107;-69
2022/06/21 00:37:41;;;;;;;;;17.75;17.75;;;;;-147.17;100.00;-15917.19;5008788;28;51157;-67
2022/06/21 00:40:21;;;;;;;;;17.75;17.75;;;;;-147.17;100.00;-15917.19;4997060;28;52796;-67
2022/06/21 00:43:09;;;;;;;;;17.33;16.67;;;;;-147.17;100.00;-15917.19;4996201;28;51042;-68
2022/06/21 00:45:42;;;;;;;;;17.00;16.25;;;;;-147.17;100.00;-15917.19;5009454;28;51052;-68
2022/06/21 00:48:18;;;;;;;;;18.25;18.25;;;;;-147.17;100.00;-15917.19;5005435;28;51243;-67
2022/06/21 00:50:51;;;;;;;;;18.75;18.00;;;;;-147.17;100.00;-15917.19;5005260;28;52920;-68
2022/06/21 00:53:23;;;;;;;;;17.00;16.00;;;;;-147.17;100.00;-15917.19;5009538;28;51001;-67
2022/06/21 00:55:59;;;;;;;;;19.25;18.25;;;;;-147.17;100.00;-15917.19;5007773;28;51133;-67
2022/06/21 00:58:26;;;;;;;;;19.50;18.50;;;;;-147.17;100.00;-15917.19;5009368;28;50903;-67
2022/06/21 01:01:04;;;;;;;;;14.75;14.75;;;;;-147.17;100.00;-15917.19;5012211;28;52090;-67
2022/06/21 01:03:41;;;;;;;;;18.25;18.25;;;;;-147.17;100.00;-15917.19;5009029;28;51157;-67
2022/06/21 01:06:18;;;;;;;;;16.50;16.00;;;;;-147.17;100.00;-15917.19;5008719;28;51241;-67
2022/06/21 01:08:50;;;;;;;;;18.50;18.50;;;;;-147.17;100.00;-15917.19;5005735;28;51174;-67
2022/06/21 01:11:25;;;;;;;;;19.25;18.00;;;;;-147.17;100.00;-15917.19;5001689;28;51401;-67
2022/06/21 01:13:54;;;;;;;;;18.50;18.00;;;;;-147.17;100.00;-15917.19;5002368;28;51058;-67
2022/06/21 01:16:23;;;;;;;;;15.67;15.00;;;;;-147.17;100.00;-15917.19;5007679;28;51103;-67
2022/06/21 01:18:48;;;;;;;;;19.25;18.75;;;;;-147.17;100.00;-15917.19;5013091;28;51227;-67
2022/06/21 01:21:17;;;;;;;;;16.00;15.00;;;;;-147.17;100.00;-15917.19;5007690;28;51624;-66
2022/06/21 01:23:48;;;;;;;;;18.25;17.25;;;;;-147.17;100.00;-15917.19;5012447;28;51169;-66
2022/06/21 01:26:38;;;;;;;;;14.33;14.33;;;;;-147.17;100.00;-15917.19;5009203;28;50903;-66
2022/06/21 01:29:09;;;;;;;;;17.00;16.00;;;;;-147.17;100.00;-15917.19;5007463;28;51131;-66
2022/06/21 01:31:35;;;;;;;;;17.00;17.00;;;;;-147.17;100.00;-15917.19;5006673;28;51360;-66
2022/06/21 01:34:00;;;;;;;;;15.00;14.33;;;;;-147.17;100.00;-15917.19;5005094;28;51120;-67
2022/06/21 01:36:35;;;;;;;;;16.75;16.75;;;;;-147.17;100.00;-15917.19;5003345;28;51114;-66
2022/06/21 01:39:05;;;;;;;;;16.75;16.75;;;;;-147.17;100.00;-15917.19;5009806;28;50967;-66
2022/06/21 01:41:37;;;;;;;;;15.67;14.33;;;;;-147.17;100.00;-15917.19;5007913;28;51655;-68
2022/06/21 01:44:09;;;;;;;;;16.00;15.00;;;;;-147.17;100.00;-15917.19;5013900;28;51052;-68
2022/06/21 01:46:35;;;;;;;;;12.33;12.33;;;;;-147.17;100.00;-15917.19;5003285;28;51136;-68
2022/06/21 01:49:07;;;;;;;;;15.67;14.67;;;;;-147.17;100.00;-15917.19;5007727;28;51072;-67
2022/06/21 01:51:40;;;;;;;;;17.50;17.50;;;;;-147.17;100.00;-15917.19;5003781;28;51898;-67
2022/06/21 01:54:09;;;;;;;;;16.67;16.33;;;;;-147.17;100.00;-15917.19;5009512;28;50906;-67
2022/06/21 01:56:38;;;;;;;;;15.25;15.25;;;;;-147.17;100.00;-15917.19;5009083;28;51053;-67
2022/06/21 01:59:14;;;;;;;;;16.00;15.00;;;;;-147.17;100.00;-15917.19;5010811;28;51357;-68
2022/06/21 02:01:47;;;;;;;;;15.00;15.00;;;;;-147.17;100.00;-15917.19;5025654;28;54249;-67
2022/06/21 02:04:17;;;;;;;;;12.00;11.67;;;;;-147.17;100.00;-15917.19;4996922;28;51222;-67
2022/06/21 02:06:45;;;;;;;;;11.33;11.33;;;;;-147.17;100.00;-15917.19;5004131;28;51203;-66
2022/06/21 02:09:27;;;;;;;;;13.25;13.25;;;;;-147.17;100.00;-15917.19;5009646;28;51290;-68
2022/06/21 02:12:05;;;;;;;;;14.00;14.00;;;;;-147.17;100.00;-15917.19;5009555;28;51068;-68
2022/06/21 02:14:37;;;;;;;;;15.00;14.00;;;;;-147.17;100.00;-15917.19;5002773;28;51058;-68
2022/06/21 02:17:17;;;;;;;;;13.67;13.00;;;;;-147.17;100.00;-15917.19;5016202;28;50920;-67
2022/06/21 02:20:07;;;;;;;;;13.00;12.50;;;;;-147.17;100.00;-15917.19;5012274;28;51019;-67
2022/06/21 02:22:33;;;;;;;;;13.00;13.00;;;;;-147.17;100.00;-15917.19;5008491;28;51946;-67
2022/06/21 02:24:59;;;;;;;;;15.00;15.00;;;;;-147.17;100.00;-15917.19;5008843;28;50958;-67
2022/06/21 02:27:30;;;;;;;;;13.75;13.75;;;;;-147.17;100.00;-15917.19;5004549;28;51298;-68
2022/06/21 02:29:58;;;;;;;;;15.50;14.50;;;;;-147.17;100.00;-15917.19;5014373;28;51166;-68
2022/06/21 02:32:29;;;;;;;;;12.67;12.67;;;;;-147.17;100.00;-15917.19;5007515;28;51945;-68
2022/06/21 02:35:17;;;;;;;;;14.33;13.00;;;;;-147.17;100.00;-15917.19;4995849;28;51056;-67
2022/06/21 02:37:45;;;;;;;;;14.00;14.00;;;;;-147.17;100.00;-15917.19;5013414;28;51244;-67
2022/06/21 02:40:18;;;;;;;;;12.50;12.25;;;;;-147.17;100.00;-15917.19;5007949;28;51212;-68
2022/06/21 02:42:46;;;;;;;;;13.67;13.00;;;;;-147.17;100.00;-15917.19;5007930;28;51877;-68
2022/06/21 02:45:25;;;;;;;;;15.00;15.00;;;;;-147.17;100.00;-15917.19;5006799;28;51234;-68
2022/06/21 02:47:53;;;;;;;;;13.67;13.33;;;;;-147.17;100.00;-15917.19;5001616;28;51223;-68
2022/06/21 02:50:40;;;;;;;;;16.33;15.33;;;;;-147.17;100.00;-15917.19;5013704;28;51522;-68
2022/06/21 02:53:25;;;;;;;;;13.00;13.00;;;;;-147.17;100.00;-15917.19;5003516;28;52198;-69
2022/06/21 02:55:59;;;;;;;;;13.33;13.33;;;;;-147.17;100.00;-15917.19;4994253;28;50987;-68
2022/06/21 02:58:39;;;;;;;;;15.00;15.00;;;;;-147.17;100.00;-15917.19;5008264;28;51009;-68
2022/06/21 03:01:14;;;;;;;;;14.33;13.33;;;;;-147.17;100.00;-15917.19;5010728;28;52086;-68
2022/06/21 03:03:39;;;;;;;;;15.00;14.00;;;;;-147.17;100.00;-15917.19;5004481;28;52779;-69
2022/06/21 03:06:10;;;;;;;;;18.25;17.00;;;;;-147.17;100.00;-15917.19;4998584;28;50971;-69
2022/06/21 03:08:39;;;;;;;;;15.25;14.00;;;;;-147.17;100.00;-15917.19;5006760;28;51166;-67
2022/06/21 03:11:05;;;;;;;;;14.50;14.50;;;;;-147.17;100.00;-15917.19;5009706;28;51392;-68
2022/06/21 03:13:35;;;;;;;;;13.50;12.75;;;;;-147.17;100.00;-15917.19;5009097;28;51139;-67
2022/06/21 03:16:08;;;;;;;;;14.33;13.67;;;;;-147.17;100.00;-15917.19;5014254;28;51041;-67
2022/06/21 03:18:44;;;;;;;;;16.00;15.00;;;;;-147.17;100.00;-15917.19;5011697;28;51281;-68
2022/06/21 03:21:13;;;;;;;;;15.33;15.33;;;;;-147.17;100.00;-15917.19;5008916;28;51036;-67
2022/06/21 03:23:41;;;;;;;;;13.67;13.67;;;;;-147.17;100.00;-15917.19;5009824;28;52165;-69
2022/06/21 03:26:07;;;;;;;;;16.25;15.00;;;;;-147.17;100.00;-15917.19;5002779;28;50973;-67
2022/06/21 03:28:41;;;;;;;;;13.75;13.75;;;;;-147.17;100.00;-15917.19;4998659;28;51057;-67
2022/06/21 03:31:13;;;;;;;;;15.33;13.00;;;;;-147.17;100.00;-15917.19;5006281;28;51145;-68
2022/06/21 03:33:42;;;;;;;;;14.00;13.67;;;;;-147.17;100.00;-15917.19;5002009;28;51151;-68
2022/06/21 03:36:11;;;;;;;;;15.33;15.33;;;;;-147.17;100.00;-15917.19;5003500;28;51165;-68
2022/06/21 03:38:39;;;;;;;;;15.67;15.00;;;;;-147.17;100.00;-15917.19;5012434;28;51145;-68
2022/06/21 03:43:57;;;;;;;;;17.00;17.00;;;;;-147.17;100.00;-15917.19;5004195;28;51500;-68
2022/06/21 03:46:57;;;;;;;;;18.75;18.75;;;;;-147.17;100.00;-15917.19;5012338;28;51153;-67
2022/06/21 03:49:31;;;;;;;;;18.75;18.75;;;;;-147.17;100.00;-15917.19;5002634;28;50966;-68
2022/06/21 03:52:02;;;;;;;;;17.75;17.75;;;;;-147.17;100.00;-15917.19;4994688;28;50958;-68
2022/06/21 03:54:27;;;;;;;;;19.00;16.00;;;;;-147.17;100.00;-15917.19;5008577;28;51781;-68
2022/06/21 03:57:00;;;;;;;;;12.50;11.50;;;;;-147.17;100.00;-15917.19;5003618;28;51211;-68
2022/06/21 03:59:37;;;;;;;;;17.75;16.75;;;;;-147.17;100.00;-15917.19;5013366;28;50969;-67
2022/06/21 04:02:23;;;;;;;;;16.33;15.33;;;;;-147.17;100.00;-15917.19;5013145;28;52766;-68
2022/06/21 04:05:17;;;;;;;;;13.33;13.33;;;;;-147.17;100.00;-15917.19;5010633;28;52964;-68
2022/06/21 04:07:49;;;;;;;;;14.50;14.00;;;;;-147.17;100.00;-15917.19;5003536;28;51254;-68
2022/06/21 04:10:27;;;;;;;;;16.25;16.00;;;;;-147.17;100.00;-15917.19;5008333;28;51453;-68
2022/06/21 04:12:56;;;;;;;;;13.00;12.33;;;;;-147.17;100.00;-15917.19;5005282;28;51208;-67
2022/06/21 04:15:35;;;;;;;;;14.00;14.00;;;;;-147.17;100.00;-15917.19;5007002;28;52057;-67
2022/06/21 04:18:16;;;;;;;;;16.50;15.75;;;;;-147.17;100.00;-15917.19;5000515;28;51132;-68
2022/06/21 04:20:53;;;;;;;;;14.67;13.33;;;;;-147.17;100.00;-15917.19;5008296;28;52852;-68
2022/06/21 04:23:36;;;;;;;;;16.75;16.00;;;;;-147.17;100.00;-15917.19;5001183;28;50886;-67
2022/06/21 04:26:17;;;;;;;;;15.00;14.25;;;;;-147.17;100.00;-15917.19;4998833;28;51240;-68
2022/06/21 04:29:10;;;;;;;;;16.75;16.25;;;;;-147.17;100.00;-15917.19;5005973;28;51139;-68
2022/06/21 04:31:48;;;;;;;;;14.25;14.25;;;;;-147.17;100.00;-15917.19;4997259;28;51091;-68
2022/06/21 04:34:21;;;;;;;;;17.75;16.75;;;;;-147.17;100.00;-15917.19;5001269;28;51200;-68
2022/06/21 04:36:53;;;;;;;;;17.50;17.50;;;;;-147.17;100.00;-15917.19;5008914;28;51076;-69
2022/06/21 04:39:30;;;;;;;;;15.50;15.50;;;;;-147.17;100.00;-15917.19;4998205;28;51275;-68
2022/06/21 04:42:02;;;;;;;;;18.00;17.25;;;;;-147.17;100.00;-15917.19;4986318;28;51028;-68
2022/06/21 04:44:33;;;;;;;;;16.25;15.75;;;;;-147.17;100.00;-15917.19;5004777;28;50985;-68
2022/06/21 04:47:05;;;;;;;;;16.75;16.50;;;;;-147.17;100.00;-15917.19;5010187;28;50976;-68
2022/06/21 04:49:45;;;;;;;;;14.67;14.00;;;;;-147.17;100.00;-15917.19;5009151;28;51188;-68
2022/06/21 04:52:16;;;;;;;;;18.00;17.75;;;;;-147.17;100.00;-15917.19;5010193;28;51300;-66
2022/06/21 04:54:42;;;;;;;;;14.50;14.00;;;;;-147.17;100.00;-15917.19;5006883;28;51258;-68
2022/06/21 04:57:18;;;;;;;;;16.75;16.00;;;;;-147.17;100.00;-15917.19;5006420;28;52303;-68
2022/06/21 04:59:53;;;;;;;;;16.50;16.00;;;;;-147.17;100.00;-15917.19;5010597;28;51018;-68
2022/06/21 05:02:36;;;;;;;;;16.25;15.75;;;;;-147.17;100.00;-15917.19;5009128;28;51259;-67
2022/06/21 05:05:10;;;;;;;;;16.50;15.00;;;;;-147.17;100.00;-15917.19;5007883;28;51215;-67
2022/06/21 05:07:50;;;;;;;;;14.00;13.75;;;;;-147.17;100.00;-15917.19;5004004;28;54800;-70
2022/06/21 05:10:21;;;;;;;;;18.00;16.00;;;;;-147.17;100.00;-15917.19;5007861;28;50955;-69
2022/06/21 05:12:49;;;;;;;;;17.50;17.25;;;;;-147.17;100.00;-15917.19;5015252;28;51063;-69
2022/06/21 05:15:23;;;;;;;;;18.00;18.00;;;;;-147.17;100.00;-15917.19;5014489;28;50966;-69
2022/06/21 05:17:54;;;;;;;;;17.25;15.75;;;;;-147.17;100.00;-15917.19;5009389;28;52080;-69
2022/06/21 05:20:24;;;;;;;;;17.50;17.50;;;;;-147.17;100.00;-15917.19;5014836;28;51168;-70
2022/06/21 05:22:53;;;;;;;;;16.50;16.25;;;;;-147.17;100.00;-15917.19;5027262;28;51043;-69
2022/06/21 05:25:30;;;;;;;;;17.00;16.00;;;;;-147.17;100.00;-15917.19;4978574;28;50941;-70
2022/06/21 05:28:25;;;;;;;;;20.00;19.50;;;;;-147.17;100.00;-15917.19;5007489;28;51347;-69
2022/06/21 05:31:07;;;;;;;;;16.50;15.50;;;;;-147.17;100.00;-15917.19;5013276;28;51126;-72
2022/06/21 05:33:36;;;;;;;;;16.25;16.25;;;;;-147.17;100.00;-15917.19;5012488;28;51159;-68
2022/06/21 05:36:06;;;;;;;;;18.25;18.00;;;;;-147.17;100.00;-15917.19;5010817;28;51111;-69
2022/06/21 05:38:35;;;;;;;;;20.25;19.25;;;;;-147.17;100.00;-15917.19;5008741;28;54784;-69
2022/06/21 05:41:30;;;;;;;;;19.50;19.50;;;;;-147.17;100.00;-15917.19;4996968;28;51077;-70
2022/06/21 05:44:21;;;;;;;;;15.00;14.75;;;;;-147.17;100.00;-15917.19;5010276;28;51304;-70
2022/06/21 05:46:50;;;;;;;;;16.75;16.75;;;;;-147.17;100.00;-15917.19;5009438;28;51129;-68
2022/06/21 05:49:24;;;;;;;;;18.25;15.75;;;;;-147.17;100.00;-15917.19;5013516;28;51643;-69
2022/06/21 05:51:52;;;;;;;;;20.75;20.00;;;;;-147.17;100.00;-15917.19;5006300;28;51123;-69
2022/06/21 05:54:23;;;;;;;;;19.00;18.00;;;;;-147.17;100.00;-15917.19;5007936;28;51133;-69
2022/06/21 05:56:50;;;;;;;;;18.00;18.00;;;;;-147.17;100.00;-15917.19;5015078;28;51120;-69
2022/06/21 05:59:20;;;;;;;;;18.25;17.75;;;;;-147.17;100.00;-15917.19;5005744;28;51975;-69
2022/06/21 06:02:07;;;;;;;;;19.25;18.00;;;;;-147.17;100.00;-15917.19;5009547;28;51152;-69
2022/06/21 06:05:01;;;;;;;;;16.75;16.75;;;;;-147.17;100.00;-15917.19;5009569;28;51108;-69
2022/06/21 06:07:33;;;;;;;;;16.75;16.75;;;;;-147.17;100.00;-15917.19;4994840;28;50972;-70
2022/06/21 06:10:01;;;;;;;;;17.50;17.00;;;;;-147.17;100.00;-15917.19;4994221;28;51832;-69
2022/06/21 06:12:32;;;;;;;;;17.50;16.00;;;;;-147.17;100.00;-15917.19;5006559;28;51149;-69
2022/06/21 06:15:06;;;;;;;;;16.50;16.50;;;;;-147.17;100.00;-15917.19;5014013;28;51108;-69
2022/06/21 06:18:02;;;;;;;;;19.00;18.25;;;;;-147.17;100.00;-15917.19;5016027;28;51489;-69
2022/06/21 06:20:27;;;;;;;;;19.00;18.00;;;;;-147.17;100.00;-15917.19;4994036;28;52061;-68
2022/06/21 06:22:59;;;;;;;;;17.75;17.50;;;;;-147.17;100.00;-15917.19;5011702;28;51146;-70
2022/06/21 06:25:45;;;;;;;;;15.00;15.00;;;;;-147.17;100.00;-15917.19;5014641;28;51155;-71
2022/06/21 06:28:29;;;;;;;;;15.00;15.00;;;;;-147.17;100.00;-15917.19;5014191;28;51303;-71
2022/06/21 06:31:06;;;;;;;;;15.67;15.67;;;;;-147.17;100.00;-15917.19;5013280;28;51211;-70
2022/06/21 06:33:40;;;;;;;;;14.33;14.33;;;;;-147.17;100.00;-15917.19;5002760;28;51127;-69
2022/06/21 06:36:27;;;;;;;;;15.33;14.00;;;;;-147.17;100.00;-15917.19;5005032;28;51148;-69
2022/06/21 06:38:54;;;;;;;;;16.33;15.67;;;;;-147.17;100.00;-15917.19;5011784;28;50996;-69
2022/06/21 06:41:29;;;;;;;;;14.00;14.00;;;;;-147.17;100.00;-15917.19;4998992;28;51929;-71
2022/06/21 06:44:02;;;;;;;;;14.67;14.33;;;;;-147.17;100.00;-15917.19;5006234;28;51123;-70
2022/06/21 06:46:34;;;;;;;;;14.67;14.00;;;;;-147.17;100.00;-15917.19;5010289;28;51485;-73
2022/06/21 06:49:26;;;;;;;;;12.00;12.00;;;;;-147.17;100.00;-15917.19;5010476;28;51151;-72
2022/06/21 06:52:10;;;;;;;;;13.33;12.67;;;;;-147.17;100.00;-15917.19;5008628;28;51112;-70
2022/06/21 06:54:49;;;;;;;;;11.33;11.00;;;;;-147.17;100.00;-15917.19;5002831;28;51210;-70
2022/06/21 06:57:30;;;;;;;;;15.00;14.33;;;;;-147.17;100.00;-15917.19;5010979;28;51281;-69
2022/06/21 06:59:56;;;;;;;;;14.00;13.67;;;;;-147.17;100.00;-15917.19;5005252;28;51254;-70
2022/06/21 07:02:31;;;;;;;;;16.00;14.67;;;;;-147.17;100.00;-15917.19;5013280;28;53190;-71
2022/06/21 07:05:06;;;;;;;;;17.00;16.33;;;;;-147.17;100.00;-15917.19;5007487;28;51156;-70
2022/06/21 07:07:47;;;;;;;;;14.33;14.33;;;;;-147.17;100.00;-15917.19;5012615;28;51290;-71
2022/06/21 07:10:18;;;;;;;;;17.00;17.00;;;;;-147.17;100.00;-15917.19;5008732;28;52436;-70
2022/06/21 07:12:44;;;;;;;;;17.00;15.33;;;;;-147.17;100.00;-15917.19;5010364;28;51148;-70
2022/06/21 07:15:12;;;;;;;;;14.00;13.33;;;;;-147.17;100.00;-15917.19;5012152;28;51157;-70
2022/06/21 07:17:41;;;;;;;;;13.33;12.67;;;;;-147.17;100.00;-15917.19;5010860;28;51224;-70
2022/06/21 07:20:26;;;;;;;;;12.00;12.00;;;;;-147.17;100.00;-15917.19;5005690;28;51381;-70
2022/06/21 07:22:55;;;;;;;;;13.00;12.33;;;;;-147.17;100.00;-15917.19;5008853;28;51233;-70
2022/06/21 07:25:27;;;;;;;;;16.00;15.00;;;;;-147.17;100.00;-15917.19;5008507;28;51093;-70
2022/06/21 07:28:01;;;;;;;;;15.00;14.67;;;;;-147.17;100.00;-15917.19;5006162;28;51105;-70
2022/06/21 07:30:38;;;;;;;;;15.00;15.00;;;;;-147.17;100.00;-15917.19;5010989;28;51184;-70
2022/06/21 07:33:23;;;;;;;;;15.00;15.00;;;;;-147.17;100.00;-15917.19;4997243;28;51002;-69
2022/06/21 07:35:56;;;;;;;;;15.67;15.67;;;;;-147.17;100.00;-15917.19;5008930;28;51124;-69
2022/06/21 07:38:27;;;;;;;;;14.67;14.67;;;;;-147.17;100.00;-15917.19;5010307;28;50987;-69
2022/06/21 07:40:52;;;;;;;;;13.00;12.33;;;;;-147.17;100.00;-15917.19;5009709;28;50938;-69
2022/06/21 07:43:40;;;;;;;;;13.00;13.00;;;;;-147.17;100.00;-15917.19;5012505;28;51032;-70
2022/06/21 07:46:08;;;;;;;;;12.33;12.33;;;;;-147.17;100.00;-15917.19;4999439;28;51074;-71
2022/06/21 07:49:18;;;;;;;;;14.00;14.00;;;;;-147.17;100.00;-15917.19;5007399;28;51230;-69
2022/06/21 07:51:52;;;;;;;;;16.00;16.00;;;;;-147.17;100.00;-15917.19;5009388;28;51147;-68
2022/06/21 07:54:28;;;;;;;;;14.33;14.33;;;;;-147.17;100.00;-15917.19;5001904;28;51959;-68
2022/06/21 07:57:03;;;;;;;;;16.67;13.67;;;;;-147.17;100.00;-15917.19;5007539;28;51006;-69
2022/06/21 07:59:36;;;;;;;;;15.00;14.00;;;;;-147.17;100.00;-15917.19;5004104;28;51238;-70
2022/06/21 08:08:36;;;;;;;;;15.33;14.33;;;;;-147.17;100.00;-15917.19;5008955;28;50951;-69
2022/06/21 08:11:11;;;;;;;;;18.33;18.33;;;;;-147.17;100.00;-15917.19;5003014;28;51238;-68
2022/06/21 08:13:37;;;;;;;;;14.33;13.33;;;;;-147.17;100.00;-15917.19;5003213;28;51156;-68
2022/06/21 08:16:18;;;;;;;;;16.00;16.00;;;;;-147.17;100.00;-15917.19;5010891;28;51140;-69
2022/06/21 08:18:57;;;;;;;;;14.00;14.00;;;;;-147.17;100.00;-15917.19;5004499;28;51171;-69
2022/06/21 08:21:41;;;;;;;;;16.00;15.67;;;;;-147.17;100.00;-15917.19;5002138;28;51735;-70
2022/06/21 08:24:33;;;;;;;;;12.67;12.00;;;;;-147.17;100.00;-15917.19;5003661;28;51093;-68
2022/06/21 08:27:07;;;;;;;;;16.00;15.00;;;;;-147.17;100.00;-15917.19;5010345;28;52960;-69
2022/06/21 08:29:43;;;;;;;;;15.67;14.67;;;;;-147.17;100.00;-15917.19;4999156;28;51077;-69
2022/06/21 08:32:49;;;;;;;;;16.33;16.33;;;;;-147.17;100.00;-15917.19;5009083;28;51205;-69
2022/06/21 08:35:22;;;;;;;;;16.00;16.00;;;;;-147.17;100.00;-15917.19;5010973;28;52944;-69
2022/06/21 08:38:04;;;;;;;;;15.00;15.00;;;;;-147.17;100.00;-15917.19;5009168;28;51493;-68
2022/06/21 08:41:51;;;;;;;;;16.67;15.67;;;;;-147.17;100.00;-15917.19;5006478;28;50949;-69
2022/06/21 08:44:11;;;;;;;;;18.67;18.67;;;;;-147.17;100.00;-15917.19;4996354;28;51294;-70
2022/06/21 08:46:58;;;;;;;;;18.67;17.00;;;;;-147.17;100.00;-15917.19;5007251;28;51075;-70
2022/06/21 08:49:32;;;;;;;;;18.00;18.00;;;;;-147.17;100.00;-15917.19;4996886;28;51457;-70
2022/06/21 08:52:11;;;;;;;;;16.00;16.00;;;;;-147.17;100.00;-15917.19;5008113;28;51298;-70
2022/06/21 08:54:45;;;;;;;;;18.67;18.00;;;;;-147.17;100.00;-15917.19;5007765;28;51128;-71
2022/06/21 08:57:44;;;;;;;;;19.67;19.00;;;;;-147.17;100.00;-15917.19;5006231;28;51228;-70
2022/06/21 09:00:33;;;;;;;;;19.67;18.33;;;;;-147.17;100.00;-15917.19;5009255;28;51317;-70
2022/06/21 09:03:08;;;;;;;;;19.00;18.00;;;;;-147.17;100.00;-15917.19;5005004;28;50915;-70
2022/06/21 09:06:07;;;;;;;;;18.33;18.33;;;;;-147.17;100.00;-15917.19;5004192;28;51015;-69
2022/06/21 09:08:35;;;;;;;;;19.00;18.00;;;;;-147.17;100.00;-15917.19;4995625;28;51022;-69
2022/06/21 09:11:03;;;;;;;;;18.00;18.00;;;;;-147.17;100.00;-15917.19;5009275;28;50961;-69
2022/06/21 09:13:57;;;;;;;;;20.50;20.00;;;;;-147.17;100.00;-15917.19;5003809;28;51060;-70
2022/06/21 09:16:33;;;;;;;;;20.75;20.75;;;;;-147.17;100.00;-15917.19;5008707;28;50957;-70
2022/06/21 09:18:58;;;;;;;;;19.50;19.50;;;;;-147.17;100.00;-15917.19;5008025;28;51212;-69
2022/06/21 09:21:35;;;;;;;;;19.00;18.00;;;;;-147.17;100.00;-15917.19;5008894;28;51843;-69
2022/06/21 09:24:46;;;;;;;;;16.00;16.00;;;;;-147.17;100.00;-15917.19;5010798;28;51055;-71
2022/06/21 09:27:26;;;;;;;;;19.00;19.00;;;;;-147.17;100.00;-15917.19;5001595;28;51116;-69
2022/06/21 09:30:01;;;;;;;;;19.67;19.00;;;;;-147.17;100.00;-15917.19;5011115;28;51008;-69
2022/06/21 09:33:07;;;;;;;;;22.33;19.00;;;;;-147.17;100.00;-15917.19;5007011;28;52423;-68
2022/06/21 09:35:46;;;;;;;;;17.00;16.67;;;;;-147.17;100.00;-15917.19;4994109;28;51072;-71
2022/06/21 09:38:42;;;;;;;;;19.33;18.67;;;;;-147.17;100.00;-15917.19;5008299;28;51068;-68
2022/06/21 09:41:33;;;;;;;;;19.00;19.00;;;;;-147.17;100.00;-15917.19;5009234;28;51123;-70
2022/06/21 09:44:26;;;;;;;;;19.00;18.67;;;;;-147.17;100.00;-15917.19;5011583;28;51234;-69
2022/06/21 09:46:58;;;;;;;;;21.00;21.00;;;;;-147.17;100.00;-15917.19;5007019;28;51168;-69
2022/06/21 09:49:51;;;;;;;;;19.00;18.00;;;;;-147.17;100.00;-15917.19;5007241;28;50890;-69
2022/06/21 09:52:56;;;;;;;;;18.33;18.00;;;;;-147.17;100.00;-15917.19;4996353;28;51209;-70
2022/06/21 09:55:56;;;;;;;;;21.33;21.33;;;;;-147.17;100.00;-15917.19;4961462;28;51186;-71
2022/06/21 09:58:34;;;;;;;;;19.67;19.67;;;;;-147.17;100.00;-15917.19;5014951;28;51111;-68
2022/06/21 10:01:09;;;;;;;;;22.67;21.67;;;;;-147.17;100.00;-15917.19;5011039;28;51343;-68
2022/06/21 10:03:49;;;;;;;;;24.00;22.50;;;;;-147.17;100.00;-15917.19;5012209;28;51250;-68
2022/06/21 10:06:26;;;;;;;;;21.67;20.00;;;;;-147.17;100.00;-15917.19;5000590;28;52858;-69
2022/06/21 10:09:16;;;;;;;;;19.67;19.00;;;;;-147.17;100.00;-15917.19;5007131;28;51090;-69
2022/06/21 10:12:25;;;;;;;;;22.33;21.00;;;;;-147.17;100.00;-15917.19;5003031;28;51246;-70
2022/06/21 10:15:18;;;;;;;;;6.33;6.33;;;;;-147.17;100.00;-15917.19;5011739;28;51091;-70
2022/06/21 10:18:16;;;;;;;;;13.00;13.00;;;;;-147.17;100.00;-15917.19;5021842;28;51022;-69
2022/06/21 10:20:54;;;;;;;;;18.00;17.67;;;;;-147.17;100.00;-15917.19;5011148;28;51058;-69
2022/06/21 10:23:41;;;;;;;;;15.67;15.67;;;;;-147.17;100.00;-15917.19;5011228;28;51026;-71
2022/06/21 10:26:12;;;;;;;;;21.67;20.33;;;;;-147.17;100.00;-15917.19;5013713;28;52184;-70
2022/06/21 10:28:46;;;;;;;;;18.33;18.00;;;;;-147.17;100.00;-15917.19;5011602;28;51190;-70
2022/06/21 10:31:28;;;;;;;;;24.00;22.75;;;;;-147.17;100.00;-15917.19;5011704;28;51158;-69
2022/06/21 10:34:15;;;;;;;;;18.33;16.00;;;;;-147.17;100.00;-15917.19;5010270;28;51084;-71
2022/06/21 10:37:02;;;;;;;;;16.33;16.33;;;;;-147.17;100.00;-15917.19;5005048;28;51295;-70
2022/06/21 10:39:45;;;;;;;;;21.00;20.67;;;;;-147.17;100.00;-15917.19;5007246;28;54130;-69
2022/06/21 10:45:18;;;;;;;;;20.00;20.00;;;;;-147.17;100.00;-15917.19;5002208;28;51346;-70
2022/06/21 10:47:55;;;;;;;;;18.25;17.50;;;;;-147.17;100.00;-15917.19;5007855;28;51227;-70
2022/06/21 10:50:33;;;;;;;;;19.25;18.00;;;;;-147.17;100.00;-15917.19;5012325;28;52045;-69
2022/06/21 10:53:17;;;;;;;;;19.00;19.00;;;;;-147.17;100.00;-15917.19;5001470;28;51042;-69
2022/06/21 10:59:09;;;;;;;;;17.00;17.00;;;;;-147.17;100.00;-15917.19;5004205;28;51106;-69
2022/06/21 11:01:50;;;;;;;;;20.50;18.75;;;;;-147.17;100.00;-15917.19;5002896;28;51897;-69
2022/06/21 11:04:51;;;;;;;;;19.00;18.33;;;;;-147.17;100.00;-15917.19;5012147;28;51170;-69
2022/06/21 11:07:19;;;;;;;;;18.33;17.67;;;;;-147.17;100.00;-15917.19;5011324;28;51168;-69
2022/06/21 11:10:01;;;;;;;;;17.00;17.00;;;;;-147.17;100.00;-15917.19;5013995;28;51109;-70
2022/06/21 11:15:28;;;;;;;;;17.50;16.50;;;;;-147.17;100.00;-15917.19;5011209;28;51162;-70
2022/06/21 11:18:08;;;;;;;;;18.67;18.00;;;;;-147.17;100.00;-15917.19;5003023;28;50877;-71
2022/06/21 11:20:57;;;;;;;;;18.75;18.25;;;;;-147.17;100.00;-15917.19;4992767;28;51197;-70
2022/06/21 11:23:38;;;;;;;;;18.50;18.50;;;;;-147.17;100.00;-15917.19;5000083;28;52845;-69
2022/06/21 11:26:10;;;;;;;;;17.00;16.25;;;;;-147.17;100.00;-15917.19;5013336;28;51036;-70
2022/06/21 11:29:00;;;;;;;;;19.00;18.00;;;;;-147.17;100.00;-15917.19;5012912;28;51148;-69
2022/06/21 11:31:41;;;;;;;;;18.33;18.00;;;;;-147.17;100.00;-15917.19;5013270;28;51191;-69
2022/06/21 11:34:34;;;;;;;;;19.00;19.00;;;;;-147.17;100.00;-15917.19;5012478;28;51051;-69
2022/06/21 11:37:03;;;;;;;;;18.75;18.25;;;;;-147.17;100.00;-15917.19;4993007;28;51039;-69
2022/06/21 11:40:00;;;;;;;;;19.33;17.67;;;;;-147.17;100.00;-15917.19;4991314;28;51109;-70
2022/06/21 11:42:33;;;;;;;;;19.00;18.00;;;;;-147.17;100.00;-15917.19;4993426;28;51094;-70
2022/06/21 11:45:32;;;;;;;;;13.33;13.33;;;;;-147.17;100.00;-15917.19;4997537;28;51838;-67
2022/06/21 11:48:24;;;;;;;;;19.33;18.67;;;;;-147.17;100.00;-15917.19;5005761;28;51116;-70